Arcata/Eureka (ACV/KACV)

Map

Destinations

Information

Location
Arcata/Eureka, CA
Local Time
04:51 / 4:51 am
GMT Time
12:51 / 12:51 pm
Gates
Unassigned
No FAA reported delays
METAR KACV 161153Z AUTO 10005KT 10SM CLR 01/01 A3018 RMK AO2 SLP226 T00110011 10033 20011 51005
TAF KACV 161120Z 1612/1712 VRB03KT P6SM FEW250 FM161800 VRB03KT P6SM SCT200 FM170600 13004KT P6SM OVC250
  • No charts available